sensor_id;sensor_type;location;lat;lon;timestamp;pressure;altitude;pressure_sealevel;temperature;humidity
77877;BME280;67251;50.844;7.978;2023-07-29T00:00:36;98144.31;;;15.01;100.00
77877;BME280;67251;50.844;7.978;2023-07-29T00:03:01;98142.56;;;15.12;100.00
77877;BME280;67251;50.844;7.978;2023-07-29T00:05:27;98147.03;;;15.23;100.00
77877;BME280;67251;50.844;7.978;2023-07-29T00:07:52;98145.53;;;15.32;100.00
77877;BME280;67251;50.844;7.978;2023-07-29T00:10:17;98138.66;;;15.42;100.00
77877;BME280;67251;50.844;7.978;2023-07-29T00:12:43;98132.59;;;15.51;100.00
77877;BME280;67251;50.844;7.978;2023-07-29T00:15:09;98125.38;;;15.57;100.00
77877;BME280;67251;50.844;7.978;2023-07-29T00:17:34;98124.00;;;15.54;100.00
77877;BME280;67251;50.844;7.978;2023-07-29T00:19:59;98120.22;;;15.55;100.00
77877;BME280;67251;50.844;7.978;2023-07-29T00:22:25;98123.25;;;15.59;100.00
77877;BME280;67251;50.844;7.978;2023-07-29T00:24:53;98117.13;;;15.64;100.00
77877;BME280;67251;50.844;7.978;2023-07-29T00:27:23;98112.13;;;15.72;100.00
77877;BME280;67251;50.844;7.978;2023-07-29T00:29:48;98111.31;;;15.72;100.00
77877;BME280;67251;50.844;7.978;2023-07-29T00:32:14;98101.31;;;15.72;100.00
77877;BME280;67251;50.844;7.978;2023-07-29T00:34:39;98110.78;;;15.75;100.00
77877;BME280;67251;50.844;7.978;2023-07-29T00:37:04;98113.25;;;15.76;100.00
77877;BME280;67251;50.844;7.978;2023-07-29T00:39:33;98106.19;;;15.75;100.00
77877;BME280;67251;50.844;7.978;2023-07-29T00:41:59;98109.72;;;15.76;100.00
77877;BME280;67251;50.844;7.978;2023-07-29T00:44:24;98111.38;;;15.77;100.00
77877;BME280;67251;50.844;7.978;2023-07-29T00:46:52;98109.78;;;15.81;100.00
77877;BME280;67251;50.844;7.978;2023-07-29T00:49:18;98108.41;;;15.78;100.00
77877;BME280;67251;50.844;7.978;2023-07-29T00:51:44;98102.47;;;15.76;100.00
77877;BME280;67251;50.844;7.978;2023-07-29T00:54:09;98105.97;;;15.77;100.00
77877;BME280;67251;50.844;7.978;2023-07-29T00:56:35;98098.09;;;15.75;100.00
77877;BME280;67251;50.844;7.978;2023-07-29T00:59:01;98100.00;;;15.75;100.00
77877;BME280;67251;50.844;7.978;2023-07-29T01:01:30;98101.38;;;15.77;100.00
77877;BME280;67251;50.844;7.978;2023-07-29T01:03:56;98100.84;;;15.80;100.00
77877;BME280;67251;50.844;7.978;2023-07-29T01:09:14;98090.97;;;15.86;100.00
77877;BME280;67251;50.844;7.978;2023-07-29T01:14:52;98087.19;;;15.87;100.00
77877;BME280;67251;50.844;7.978;2023-07-29T01:17:24;98083.72;;;15.92;100.00
77877;BME280;67251;50.844;7.978;2023-07-29T01:20:14;98072.19;;;15.96;100.00
77877;BME280;67251;50.844;7.978;2023-07-29T01:22:41;98067.00;;;15.95;100.00
77877;BME280;67251;50.844;7.978;2023-07-29T01:25:07;98074.06;;;15.96;100.00
77877;BME280;67251;50.844;7.978;2023-07-29T01:27:33;98070.28;;;15.97;100.00
77877;BME280;67251;50.844;7.978;2023-07-29T01:29:59;98069.22;;;15.98;100.00
77877;BME280;67251;50.844;7.978;2023-07-29T01:32:34;98066.50;;;15.98;100.00
77877;BME280;67251;50.844;7.978;2023-07-29T01:35:31;98062.47;;;15.95;100.00
77877;BME280;67251;50.844;7.978;2023-07-29T01:38:20;98061.88;;;15.93;100.00
77877;BME280;67251;50.844;7.978;2023-07-29T01:40:48;98056.75;;;15.92;100.00
77877;BME280;67251;50.844;7.978;2023-07-29T01:43:14;98054.59;;;15.94;100.00
77877;BME280;67251;50.844;7.978;2023-07-29T01:45:40;98053.53;;;15.95;100.00
77877;BME280;67251;50.844;7.978;2023-07-29T01:51:27;98058.41;;;15.98;100.00
77877;BME280;67251;50.844;7.978;2023-07-29T01:53:53;98052.22;;;15.97;100.00
77877;BME280;67251;50.844;7.978;2023-07-29T01:56:18;98053.84;;;15.98;100.00
77877;BME280;67251;50.844;7.978;2023-07-29T01:58:43;98046.56;;;15.99;100.00
77877;BME280;67251;50.844;7.978;2023-07-29T02:01:09;98045.50;;;16.00;100.00
77877;BME280;67251;50.844;7.978;2023-07-29T02:03:34;98037.41;;;16.00;100.00
77877;BME280;67251;50.844;7.978;2023-07-29T02:05:59;98034.00;;;16.09;100.00
77877;BME280;67251;50.844;7.978;2023-07-29T02:08:25;98032.94;;;16.16;100.00
77877;BME280;67251;50.844;7.978;2023-07-29T02:10:50;98040.25;;;16.15;100.00
77877;BME280;67251;50.844;7.978;2023-07-29T02:13:16;98034.84;;;16.15;100.00
77877;BME280;67251;50.844;7.978;2023-07-29T02:15:42;98027.25;;;16.12;100.00
77877;BME280;67251;50.844;7.978;2023-07-29T02:18:07;98030.22;;;16.10;100.00
77877;BME280;67251;50.844;7.978;2023-07-29T02:20:33;98031.28;;;16.09;100.00
77877;BME280;67251;50.844;7.978;2023-07-29T02:22:58;98023.47;;;16.13;100.00
77877;BME280;67251;50.844;7.978;2023-07-29T02:25:24;98019.16;;;16.12;100.00
77877;BME280;67251;50.844;7.978;2023-07-29T02:27:49;98015.63;;;16.12;100.00
77877;BME280;67251;50.844;7.978;2023-07-29T02:30:14;98012.69;;;16.13;100.00
77877;BME280;67251;50.844;7.978;2023-07-29T02:32:40;98004.84;;;16.12;100.00
77877;BME280;67251;50.844;7.978;2023-07-29T02:35:05;98008.34;;;16.12;100.00
77877;BME280;67251;50.844;7.978;2023-07-29T02:37:31;98006.72;;;16.11;100.00
77877;BME280;67251;50.844;7.978;2023-07-29T02:39:56;98009.75;;;16.15;100.00
77877;BME280;67251;50.844;7.978;2023-07-29T02:42:21;98010.84;;;16.19;100.00
77877;BME280;67251;50.844;7.978;2023-07-29T02:44:47;98000.91;;;16.24;100.00
77877;BME280;67251;50.844;7.978;2023-07-29T02:47:12;98004.97;;;16.27;100.00
77877;BME280;67251;50.844;7.978;2023-07-29T02:49:37;97998.50;;;16.28;100.00
77877;BME280;67251;50.844;7.978;2023-07-29T02:52:03;98003.69;;;16.34;100.00
77877;BME280;67251;50.844;7.978;2023-07-29T02:54:28;98000.75;;;16.41;100.00
77877;BME280;67251;50.844;7.978;2023-07-29T02:56:54;97997.81;;;16.43;100.00
77877;BME280;67251;50.844;7.978;2023-07-29T02:59:19;97995.34;;;16.41;100.00
77877;BME280;67251;50.844;7.978;2023-07-29T03:01:45;97991.28;;;16.39;100.00
77877;BME280;67251;50.844;7.978;2023-07-29T03:04:10;97983.69;;;16.35;100.00
77877;BME280;67251;50.844;7.978;2023-07-29T03:06:38;97994.19;;;16.32;100.00
77877;BME280;67251;50.844;7.978;2023-07-29T03:09:03;97991.75;;;16.30;100.00
77877;BME280;67251;50.844;7.978;2023-07-29T03:11:30;97985.81;;;16.28;100.00
77877;BME280;67251;50.844;7.978;2023-07-29T03:13:56;97990.97;;;16.30;100.00
77877;BME280;67251;50.844;7.978;2023-07-29T03:16:22;97983.66;;;16.30;100.00
77877;BME280;67251;50.844;7.978;2023-07-29T03:18:48;97986.09;;;16.32;100.00
77877;BME280;67251;50.844;7.978;2023-07-29T03:21:14;97979.34;;;16.29;100.00
77877;BME280;67251;50.844;7.978;2023-07-29T03:23:39;97986.06;;;16.27;100.00
77877;BME280;67251;50.844;7.978;2023-07-29T03:26:05;97990.66;;;16.26;100.00
77877;BME280;67251;50.844;7.978;2023-07-29T03:28:41;97988.75;;;16.27;100.00
77877;BME280;67251;50.844;7.978;2023-07-29T03:31:07;97985.25;;;16.26;100.00
77877;BME280;67251;50.844;7.978;2023-07-29T03:33:33;97993.91;;;16.28;100.00
77877;BME280;67251;50.844;7.978;2023-07-29T03:35:59;97985.56;;;16.30;100.00
77877;BME280;67251;50.844;7.978;2023-07-29T03:38:24;97985.28;;;16.31;100.00
77877;BME280;67251;50.844;7.978;2023-07-29T03:40:50;97986.91;;;16.32;100.00
77877;BME280;67251;50.844;7.978;2023-07-29T03:43:15;97984.78;;;16.34;100.00
77877;BME280;67251;50.844;7.978;2023-07-29T03:45:41;97986.13;;;16.37;100.00
77877;BME280;67251;50.844;7.978;2023-07-29T03:48:06;97985.88;;;16.39;100.00
77877;BME280;67251;50.844;7.978;2023-07-29T03:50:34;97989.41;;;16.39;100.00
77877;BME280;67251;50.844;7.978;2023-07-29T03:53:00;97984.53;;;16.41;100.00
77877;BME280;67251;50.844;7.978;2023-07-29T03:55:26;97983.72;;;16.41;100.00
77877;BME280;67251;50.844;7.978;2023-07-29T03:57:51;97981.84;;;16.41;100.00
77877;BME280;67251;50.844;7.978;2023-07-29T04:00:16;97973.75;;;16.41;100.00
77877;BME280;67251;50.844;7.978;2023-07-29T04:02:42;97977.81;;;16.44;100.00
77877;BME280;67251;50.844;7.978;2023-07-29T04:05:08;97978.38;;;16.46;100.00
77877;BME280;67251;50.844;7.978;2023-07-29T04:07:36;97988.13;;;16.47;100.00
77877;BME280;67251;50.844;7.978;2023-07-29T04:10:03;97980.56;;;16.49;100.00
77877;BME280;67251;50.844;7.978;2023-07-29T04:12:28;97984.88;;;16.50;100.00
77877;BME280;67251;50.844;7.978;2023-07-29T04:14:54;97981.91;;;16.51;100.00
77877;BME280;67251;50.844;7.978;2023-07-29T04:17:19;97980.03;;;16.52;100.00
77877;BME280;67251;50.844;7.978;2023-07-29T04:19:44;97977.34;;;16.52;100.00
77877;BME280;67251;50.844;7.978;2023-07-29T04:22:10;97989.22;;;16.56;100.00
77877;BME280;67251;50.844;7.978;2023-07-29T04:24:35;97994.09;;;16.54;100.00
77877;BME280;67251;50.844;7.978;2023-07-29T04:27:01;97985.16;;;16.48;100.00
77877;BME280;67251;50.844;7.978;2023-07-29T04:29:26;97985.94;;;16.44;100.00
77877;BME280;67251;50.844;7.978;2023-07-29T04:31:52;97986.44;;;16.41;100.00
77877;BME280;67251;50.844;7.978;2023-07-29T04:34:18;97994.53;;;16.41;100.00
77877;BME280;67251;50.844;7.978;2023-07-29T04:36:44;97989.13;;;16.41;100.00
77877;BME280;67251;50.844;7.978;2023-07-29T04:39:10;97991.59;;;16.42;100.00
77877;BME280;67251;50.844;7.978;2023-07-29T04:41:35;97984.03;;;16.44;100.00
77877;BME280;67251;50.844;7.978;2023-07-29T04:44:01;97992.94;;;16.45;100.00
77877;BME280;67251;50.844;7.978;2023-07-29T04:46:26;97991.06;;;16.45;100.00
77877;BME280;67251;50.844;7.978;2023-07-29T04:48:52;97993.50;;;16.47;100.00
77877;BME280;67251;50.844;7.978;2023-07-29T04:51:17;97983.53;;;16.47;100.00
77877;BME280;67251;50.844;7.978;2023-07-29T04:53:42;97992.72;;;16.51;100.00
77877;BME280;67251;50.844;7.978;2023-07-29T04:56:08;97983.28;;;16.54;100.00
77877;BME280;67251;50.844;7.978;2023-07-29T04:58:33;97993.56;;;16.57;100.00
77877;BME280;67251;50.844;7.978;2023-07-29T05:01:01;97984.38;;;16.58;100.00
77877;BME280;67251;50.844;7.978;2023-07-29T05:03:27;97990.59;;;16.58;100.00
77877;BME280;67251;50.844;7.978;2023-07-29T05:05:52;98002.78;;;16.61;100.00
77877;BME280;67251;50.844;7.978;2023-07-29T05:08:19;98000.13;;;16.66;100.00
77877;BME280;67251;50.844;7.978;2023-07-29T05:10:48;98005.59;;;16.76;100.00
77877;BME280;67251;50.844;7.978;2023-07-29T05:13:14;98008.88;;;16.83;100.00
77877;BME280;67251;50.844;7.978;2023-07-29T05:15:39;98009.97;;;16.88;100.00
77877;BME280;67251;50.844;7.978;2023-07-29T05:18:04;98007.03;;;16.89;100.00
77877;BME280;67251;50.844;7.978;2023-07-29T05:20:30;98012.44;;;16.89;100.00
77877;BME280;67251;50.844;7.978;2023-07-29T05:22:55;98013.25;;;16.90;100.00
77877;BME280;67251;50.844;7.978;2023-07-29T05:25:20;98015.69;;;16.91;100.00
77877;BME280;67251;50.844;7.978;2023-07-29T05:27:46;98002.69;;;16.93;100.00
77877;BME280;67251;50.844;7.978;2023-07-29T05:30:11;98006.28;;;16.99;100.00
77877;BME280;67251;50.844;7.978;2023-07-29T05:32:36;98005.22;;;17.05;100.00
77877;BME280;67251;50.844;7.978;2023-07-29T05:35:02;98011.16;;;17.12;100.00
77877;BME280;67251;50.844;7.978;2023-07-29T05:37:27;98010.13;;;17.18;100.00
77877;BME280;67251;50.844;7.978;2023-07-29T05:39:52;98006.06;;;17.21;100.00
77877;BME280;67251;50.844;7.978;2023-07-29T05:42:18;98001.22;;;17.18;100.00
77877;BME280;67251;50.844;7.978;2023-07-29T05:44:43;98004.75;;;17.23;100.00
77877;BME280;67251;50.844;7.978;2023-07-29T05:47:08;98006.09;;;17.26;100.00
77877;BME280;67251;50.844;7.978;2023-07-29T05:49:34;98006.94;;;17.31;100.00
77877;BME280;67251;50.844;7.978;2023-07-29T05:51:59;98013.19;;;17.42;100.00
77877;BME280;67251;50.844;7.978;2023-07-29T05:54:25;98019.97;;;17.50;100.00
77877;BME280;67251;50.844;7.978;2023-07-29T05:56:50;98025.38;;;17.55;100.00
77877;BME280;67251;50.844;7.978;2023-07-29T05:59:15;98029.16;;;17.54;100.00
77877;BME280;67251;50.844;7.978;2023-07-29T06:01:41;98030.53;;;17.46;100.00
77877;BME280;67251;50.844;7.978;2023-07-29T06:04:06;98035.06;;;17.41;100.00
77877;BME280;67251;50.844;7.978;2023-07-29T06:06:31;98041.03;;;17.37;100.00
77877;BME280;67251;50.844;7.978;2023-07-29T06:08:57;98052.91;;;17.31;100.00
77877;BME280;67251;50.844;7.978;2023-07-29T06:11:23;98048.00;;;17.23;100.00
77877;BME280;67251;50.844;7.978;2023-07-29T06:13:48;98050.69;;;17.23;100.00
77877;BME280;67251;50.844;7.978;2023-07-29T06:16:13;98055.03;;;17.24;100.00
77877;BME280;67251;50.844;7.978;2023-07-29T06:18:39;98062.34;;;17.24;100.00
77877;BME280;67251;50.844;7.978;2023-07-29T06:21:04;98059.34;;;17.20;100.00
77877;BME280;67251;50.844;7.978;2023-07-29T06:23:35;98063.13;;;17.19;100.00
77877;BME280;67251;50.844;7.978;2023-07-29T06:26:01;98060.66;;;17.13;100.00
77877;BME280;67251;50.844;7.978;2023-07-29T06:28:26;98051.44;;;17.03;100.00
77877;BME280;67251;50.844;7.978;2023-07-29T06:30:52;98047.38;;;17.06;100.00
77877;BME280;67251;50.844;7.978;2023-07-29T06:33:18;98040.06;;;17.06;100.00
77877;BME280;67251;50.844;7.978;2023-07-29T06:35:43;98039.84;;;17.13;100.00
77877;BME280;67251;50.844;7.978;2023-07-29T06:38:09;98040.41;;;17.20;100.00
77877;BME280;67251;50.844;7.978;2023-07-29T06:40:34;98044.22;;;17.24;100.00
77877;BME280;67251;50.844;7.978;2023-07-29T06:42:59;98043.69;;;17.27;100.00
77877;BME280;67251;50.844;7.978;2023-07-29T06:45:25;98054.53;;;17.32;100.00
77877;BME280;67251;50.844;7.978;2023-07-29T06:47:50;98051.84;;;17.37;100.00
77877;BME280;67251;50.844;7.978;2023-07-29T06:50:15;98055.09;;;17.40;100.00
77877;BME280;67251;50.844;7.978;2023-07-29T06:52:41;98054.56;;;17.43;99.76
77877;BME280;67251;50.844;7.978;2023-07-29T06:55:06;98054.59;;;17.48;99.51
77877;BME280;67251;50.844;7.978;2023-07-29T06:57:32;98053.78;;;17.52;99.44
77877;BME280;67251;50.844;7.978;2023-07-29T06:59:57;98052.44;;;17.55;99.31
77877;BME280;67251;50.844;7.978;2023-07-29T07:02:23;98055.72;;;17.62;99.04
77877;BME280;67251;50.844;7.978;2023-07-29T07:04:48;98064.44;;;17.74;98.91
77877;BME280;67251;50.844;7.978;2023-07-29T07:07:14;98075.28;;;17.79;98.55
77877;BME280;67251;50.844;7.978;2023-07-29T07:09:40;98073.09;;;17.76;97.93
77877;BME280;67251;50.844;7.978;2023-07-29T07:12:05;98085.00;;;17.75;98.45
77877;BME280;67251;50.844;7.978;2023-07-29T07:14:31;98097.44;;;17.76;98.01
77877;BME280;67251;50.844;7.978;2023-07-29T07:16:56;98097.75;;;17.85;98.18
77877;BME280;67251;50.844;7.978;2023-07-29T07:19:22;98097.78;;;17.95;97.03
77877;BME280;67251;50.844;7.978;2023-07-29T07:21:47;98112.72;;;18.13;95.62
77877;BME280;67251;50.844;7.978;2023-07-29T07:24:12;98106.78;;;18.36;94.84
77877;BME280;67251;50.844;7.978;2023-07-29T07:26:38;98108.69;;;18.56;93.03
77877;BME280;67251;50.844;7.978;2023-07-29T07:29:03;98112.72;;;18.49;90.83
77877;BME280;67251;50.844;7.978;2023-07-29T07:31:32;98113.53;;;18.44;92.06
77877;BME280;67251;50.844;7.978;2023-07-29T07:33:57;98114.63;;;18.48;91.35
77877;BME280;67251;50.844;7.978;2023-07-29T07:36:23;98111.66;;;18.55;89.68
77877;BME280;67251;50.844;7.978;2023-07-29T07:38:48;98106.81;;;18.82;89.29
77877;BME280;67251;50.844;7.978;2023-07-29T07:41:14;98098.56;;;19.33;85.52
77877;BME280;67251;50.844;7.978;2023-07-29T07:43:39;98094.28;;;20.31;81.80
77877;BME280;67251;50.844;7.978;2023-07-29T07:46:04;98091.69;;;21.42;76.26
77877;BME280;67251;50.844;7.978;2023-07-29T07:48:30;98095.41;;;21.23;73.89
77877;BME280;67251;50.844;7.978;2023-07-29T07:50:55;98092.34;;;21.29;74.66
77877;BME280;67251;50.844;7.978;2023-07-29T07:53:21;98086.63;;;22.35;70.24
77877;BME280;67251;50.844;7.978;2023-07-29T07:55:46;98075.25;;;24.17;65.09
77877;BME280;67251;50.844;7.978;2023-07-29T07:58:12;98082.34;;;23.68;64.96
77877;BME280;67251;50.844;7.978;2023-07-29T08:00:37;98084.13;;;22.71;65.50
77877;BME280;67251;50.844;7.978;2023-07-29T08:03:03;98084.13;;;22.20;68.14
77877;BME280;67251;50.844;7.978;2023-07-29T08:05:28;98070.66;;;22.61;67.48
77877;BME280;67251;50.844;7.978;2023-07-29T08:07:54;98073.59;;;22.13;67.81
77877;BME280;67251;50.844;7.978;2023-07-29T08:10:19;98082.84;;;21.93;69.34
77877;BME280;67251;50.844;7.978;2023-07-29T08:12:45;98083.84;;;21.60;70.28
77877;BME280;67251;50.844;7.978;2023-07-29T08:15:10;98091.03;;;21.51;71.20
77877;BME280;67251;50.844;7.978;2023-07-29T08:17:35;98080.03;;;21.61;68.82
77877;BME280;67251;50.844;7.978;2023-07-29T08:20:01;98079.34;;;21.50;68.85
77877;BME280;67251;50.844;7.978;2023-07-29T08:22:26;98077.69;;;22.11;67.82
77877;BME280;67251;50.844;7.978;2023-07-29T08:24:51;98082.03;;;22.82;65.07
77877;BME280;67251;50.844;7.978;2023-07-29T08:27:17;98094.94;;;22.25;65.54
77877;BME280;67251;50.844;7.978;2023-07-29T08:29:43;98094.22;;;21.58;68.05
77877;BME280;67251;50.844;7.978;2023-07-29T08:32:09;98097.34;;;21.17;69.48
77877;BME280;67251;50.844;7.978;2023-07-29T08:34:34;98094.81;;;21.26;70.80
77877;BME280;67251;50.844;7.978;2023-07-29T08:36:59;98093.41;;;22.19;66.89
77877;BME280;67251;50.844;7.978;2023-07-29T08:39:25;98091.84;;;22.83;63.62
77877;BME280;67251;50.844;7.978;2023-07-29T08:42:01;98096.50;;;22.83;63.50
77877;BME280;67251;50.844;7.978;2023-07-29T08:44:35;98104.72;;;22.64;63.70
77877;BME280;67251;50.844;7.978;2023-07-29T08:47:00;98102.75;;;22.51;63.84
77877;BME280;67251;50.844;7.978;2023-07-29T08:49:26;98088.16;;;22.93;63.64
77877;BME280;67251;50.844;7.978;2023-07-29T08:51:53;98077.56;;;24.24;58.95
77877;BME280;67251;50.844;7.978;2023-07-29T08:54:20;98078.91;;;25.34;54.85
77877;BME280;67251;50.844;7.978;2023-07-29T08:56:45;98078.50;;;26.49;52.56
77877;BME280;67251;50.844;7.978;2023-07-29T08:59:12;98068.34;;;28.33;48.04
77877;BME280;67251;50.844;7.978;2023-07-29T09:01:38;98062.81;;;28.53;47.17
77877;BME280;67251;50.844;7.978;2023-07-29T09:04:04;98066.28;;;28.63;45.74
77877;BME280;67251;50.844;7.978;2023-07-29T09:06:31;98079.38;;;28.03;46.17
77877;BME280;67251;50.844;7.978;2023-07-29T09:08:56;98077.38;;;26.59;49.04
77877;BME280;67251;50.844;7.978;2023-07-29T09:11:23;98084.09;;;25.44;51.98
77877;BME280;67251;50.844;7.978;2023-07-29T09:13:48;98086.56;;;25.45;52.59
77877;BME280;67251;50.844;7.978;2023-07-29T09:16:14;98077.84;;;26.53;50.47
77877;BME280;67251;50.844;7.978;2023-07-29T09:18:40;98090.59;;;26.66;48.30
77877;BME280;67251;50.844;7.978;2023-07-29T09:21:05;98088.97;;;26.73;49.05
77877;BME280;67251;50.844;7.978;2023-07-29T09:23:41;98092.66;;;26.34;48.76
77877;BME280;67251;50.844;7.978;2023-07-29T09:26:07;98096.34;;;25.95;49.63
77877;BME280;67251;50.844;7.978;2023-07-29T09:28:37;98102.81;;;25.99;49.63
77877;BME280;67251;50.844;7.978;2023-07-29T09:31:03;98094.31;;;26.35;49.47
77877;BME280;67251;50.844;7.978;2023-07-29T09:33:29;98106.22;;;26.39;50.62
77877;BME280;67251;50.844;7.978;2023-07-29T09:35:56;98107.19;;;25.52;51.42
77877;BME280;67251;50.844;7.978;2023-07-29T09:38:28;98112.25;;;25.05;53.00
77877;BME280;67251;50.844;7.978;2023-07-29T09:40:57;98105.06;;;25.48;53.95
77877;BME280;67251;50.844;7.978;2023-07-29T09:43:29;98110.06;;;25.46;52.36
77877;BME280;67251;50.844;7.978;2023-07-29T09:45:54;98103.97;;;25.58;50.40
77877;BME280;67251;50.844;7.978;2023-07-29T09:48:23;98099.78;;;25.52;51.97
77877;BME280;67251;50.844;7.978;2023-07-29T09:50:48;98087.13;;;25.82;50.92
77877;BME280;67251;50.844;7.978;2023-07-29T09:53:14;98092.78;;;25.77;50.10
77877;BME280;67251;50.844;7.978;2023-07-29T09:55:46;98098.06;;;25.25;51.53
77877;BME280;67251;50.844;7.978;2023-07-29T09:58:12;98096.91;;;24.95;52.99
77877;BME280;67251;50.844;7.978;2023-07-29T10:00:37;98100.94;;;24.97;53.24
77877;BME280;67251;50.844;7.978;2023-07-29T10:03:06;98103.38;;;24.99;52.66
77877;BME280;67251;50.844;7.978;2023-07-29T10:05:32;98109.25;;;24.61;54.53
77877;BME280;67251;50.844;7.978;2023-07-29T10:08:00;98118.81;;;24.14;54.87
77877;BME280;67251;50.844;7.978;2023-07-29T10:10:27;98123.72;;;24.26;55.57
77877;BME280;67251;50.844;7.978;2023-07-29T10:12:53;98119.44;;;24.69;56.04
77877;BME280;67251;50.844;7.978;2023-07-29T10:15:20;98122.97;;;23.97;54.70
77877;BME280;67251;50.844;7.978;2023-07-29T10:17:46;98119.66;;;23.45;56.30
77877;BME280;67251;50.844;7.978;2023-07-29T10:20:11;98124.28;;;23.31;56.48
77877;BME280;67251;50.844;7.978;2023-07-29T10:22:39;98120.38;;;23.65;55.39
77877;BME280;67251;50.844;7.978;2023-07-29T10:25:16;98123.69;;;23.62;56.02
77877;BME280;67251;50.844;7.978;2023-07-29T10:27:49;98125.41;;;23.30;55.87
77877;BME280;67251;50.844;7.978;2023-07-29T10:30:15;98125.84;;;23.05;56.61
77877;BME280;67251;50.844;7.978;2023-07-29T10:32:45;98131.66;;;23.17;56.88
77877;BME280;67251;50.844;7.978;2023-07-29T10:35:14;98125.22;;;23.54;56.60
77877;BME280;67251;50.844;7.978;2023-07-29T10:37:40;98126.41;;;23.62;57.28
77877;BME280;67251;50.844;7.978;2023-07-29T10:40:11;98135.53;;;23.43;56.68
77877;BME280;67251;50.844;7.978;2023-07-29T10:42:37;98140.13;;;23.02;58.22
77877;BME280;67251;50.844;7.978;2023-07-29T10:45:19;98141.06;;;22.40;61.73
77877;BME280;67251;50.844;7.978;2023-07-29T10:47:45;98140.22;;;22.02;62.46
77877;BME280;67251;50.844;7.978;2023-07-29T10:50:19;98148.91;;;21.61;64.01
77877;BME280;67251;50.844;7.978;2023-07-29T10:52:49;98151.66;;;21.03;66.87
77877;BME280;67251;50.844;7.978;2023-07-29T10:55:25;98161.19;;;20.66;68.84
77877;BME280;67251;50.844;7.978;2023-07-29T10:57:51;98153.72;;;20.43;70.60
77877;BME280;67251;50.844;7.978;2023-07-29T11:00:19;98144.41;;;20.54;69.16
77877;BME280;67251;50.844;7.978;2023-07-29T11:02:58;98146.28;;;20.93;69.92
77877;BME280;67251;50.844;7.978;2023-07-29T11:05:25;98146.75;;;21.29;67.35
77877;BME280;67251;50.844;7.978;2023-07-29T11:07:51;98146.75;;;21.29;67.08
77877;BME280;67251;50.844;7.978;2023-07-29T11:10:17;98148.66;;;21.29;66.36
77877;BME280;67251;50.844;7.978;2023-07-29T11:12:46;98142.91;;;21.35;65.32
77877;BME280;67251;50.844;7.978;2023-07-29T11:15:19;98145.94;;;21.29;66.03
77877;BME280;67251;50.844;7.978;2023-07-29T11:18:05;98144.81;;;21.35;63.69
77877;BME280;67251;50.844;7.978;2023-07-29T11:20:33;98141.28;;;21.58;63.40
77877;BME280;67251;50.844;7.978;2023-07-29T11:23:00;98144.06;;;22.39;63.08
77877;BME280;67251;50.844;7.978;2023-07-29T11:25:27;98144.00;;;23.28;61.69
77877;BME280;67251;50.844;7.978;2023-07-29T11:27:54;98149.16;;;23.30;56.48
77877;BME280;67251;50.844;7.978;2023-07-29T11:30:20;98150.47;;;23.32;57.37
77877;BME280;67251;50.844;7.978;2023-07-29T11:32:46;98151.13;;;22.97;57.92
77877;BME280;67251;50.844;7.978;2023-07-29T11:35:16;98150.78;;;22.65;59.96
77877;BME280;67251;50.844;7.978;2023-07-29T11:37:44;98146.81;;;22.20;59.68
77877;BME280;67251;50.844;7.978;2023-07-29T11:40:22;98145.19;;;22.38;59.55
77877;BME280;67251;50.844;7.978;2023-07-29T11:42:49;98146.66;;;22.68;59.42
77877;BME280;67251;50.844;7.978;2023-07-29T11:45:18;98144.84;;;23.97;57.93
77877;BME280;67251;50.844;7.978;2023-07-29T11:47:45;98131.03;;;25.20;53.39
77877;BME280;67251;50.844;7.978;2023-07-29T11:50:11;98125.88;;;25.89;51.78
77877;BME280;67251;50.844;7.978;2023-07-29T11:52:43;98142.13;;;24.92;50.34
77877;BME280;67251;50.844;7.978;2023-07-29T11:55:08;98139.50;;;24.42;52.10
77877;BME280;67251;50.844;7.978;2023-07-29T11:57:38;98143.72;;;23.98;53.29
77877;BME280;67251;50.844;7.978;2023-07-29T12:00:05;98142.75;;;23.81;53.11
77877;BME280;67251;50.844;7.978;2023-07-29T12:02:32;98135.44;;;23.62;54.04
77877;BME280;67251;50.844;7.978;2023-07-29T12:04:58;98139.41;;;23.70;53.62
77877;BME280;67251;50.844;7.978;2023-07-29T12:07:24;98149.31;;;23.66;52.77
77877;BME280;67251;50.844;7.978;2023-07-29T12:09:50;98147.25;;;23.44;54.02
77877;BME280;67251;50.844;7.978;2023-07-29T12:12:16;98141.09;;;22.92;56.31
77877;BME280;67251;50.844;7.978;2023-07-29T12:14:47;98145.25;;;22.14;57.89
77877;BME280;67251;50.844;7.978;2023-07-29T12:17:13;98142.72;;;21.99;58.27
77877;BME280;67251;50.844;7.978;2023-07-29T12:19:39;98139.03;;;22.08;59.57
77877;BME280;67251;50.844;7.978;2023-07-29T12:22:06;98138.47;;;21.87;60.66
77877;BME280;67251;50.844;7.978;2023-07-29T12:24:34;98137.00;;;21.76;58.96
77877;BME280;67251;50.844;7.978;2023-07-29T12:27:00;98131.59;;;21.95;59.90
77877;BME280;67251;50.844;7.978;2023-07-29T12:29:26;98133.91;;;22.07;59.36
77877;BME280;67251;50.844;7.978;2023-07-29T12:32:03;98144.97;;;22.15;59.52
77877;BME280;67251;50.844;7.978;2023-07-29T12:34:30;98141.69;;;21.94;61.22
77877;BME280;67251;50.844;7.978;2023-07-29T12:36:57;98150.13;;;22.17;62.73
77877;BME280;67251;50.844;7.978;2023-07-29T12:39:27;98147.22;;;22.08;63.14
77877;BME280;67251;50.844;7.978;2023-07-29T12:41:55;98140.19;;;21.83;64.01
77877;BME280;67251;50.844;7.978;2023-07-29T12:44:23;98143.50;;;21.80;62.45
77877;BME280;67251;50.844;7.978;2023-07-29T12:46:48;98143.63;;;21.70;64.30
77877;BME280;67251;50.844;7.978;2023-07-29T12:49:14;98146.97;;;21.62;63.50
77877;BME280;67251;50.844;7.978;2023-07-29T12:51:40;98139.97;;;21.56;64.30
77877;BME280;67251;50.844;7.978;2023-07-29T12:54:06;98130.28;;;21.44;63.58
77877;BME280;67251;50.844;7.978;2023-07-29T12:56:32;98129.34;;;21.78;64.13
77877;BME280;67251;50.844;7.978;2023-07-29T12:58:58;98121.53;;;22.14;60.68
77877;BME280;67251;50.844;7.978;2023-07-29T13:01:24;98119.03;;;22.56;59.74